EDT,Max TemperatureF,Mean TemperatureF,Min TemperatureF,Max Dew PointF,MeanDew PointF,Min DewpointF,Max Humidity, Mean Humidity, Min Humidity, Max Sea Level PressureIn, Mean Sea Level PressureIn, Min Sea Level PressureIn, Max VisibilityMiles, Mean VisibilityMiles, Min VisibilityMiles, Max Wind SpeedMPH, Mean Wind SpeedMPH, Max Gust SpeedMPH,PrecipitationIn, CloudCover, Events, WindDirDegrees
2013-8-1,73,70,68,70,65,61,100,85,73,30.06,29.94,29.85,10,9,4,14,4,21,0.82,7,,181
2013-8-2,84,75,66,68,65,61,100,71,48,29.95,29.89,29.82,10,9,2,13,5,20,0.19,3,,268
2013-8-3,78,72,66,68,65,64,94,81,65,29.95,29.92,29.89,10,10,9,15,6,18,0.01,3,,248
2013-8-4,80,71,62,64,58,52,100,66,39,29.99,29.91,29.86,10,9,3,16,7,22,0.00,2,,301
2013-8-5,78,68,57,59,52,45,82,58,32,30.07,30.04,29.99,10,10,9,13,7,18,0.00,0,,289
2013-8-6,78,68,57,63,56,52,88,62,39,30.14,30.10,30.06,10,10,8,12,5,18,0.00,2,,193
2013-8-7,78,73,68,68,65,63,88,77,61,30.16,30.13,30.08,10,10,10,14,4,21,0.00,7,,157
2013-8-8,84,76,69,73,71,68,94,87,70,30.09,30.06,30.03,10,10,6,13,7,21,0.40,6,Thunderstorm,187
2013-8-9,86,80,73,75,73,72,94,85,66,30.04,29.91,29.84,10,10,7,16,8,24,0.00,5,,213
2013-8-10,82,76,69,73,66,61,100,72,51,30.06,29.99,29.89,10,10,5,14,7,20,0.00,0,,282
2013-8-11,78,70,62,66,60,55,94,69,47,30.14,30.09,30.05,10,10,10,10,4,,0.00,1,,129
2013-8-12,78,73,68,70,68,66,94,86,65,30.06,30.00,29.95,10,10,5,9,3,,0.00,4,,176
2013-8-13,77,72,68,73,69,66,100,93,74,29.93,29.79,29.73,10,6,1,16,5,23,2.65,5,Thunderstorm,116
2013-8-14,73,66,60,68,53,46,88,62,44,30.06,29.89,29.76,10,10,10,21,11,30,0.00,2,,311
2013-8-15,75,64,53,55,52,46,88,64,36,30.17,30.12,30.07,10,10,10,10,6,,0.00,1,,274
2013-8-16,78,66,55,55,53,48,94,61,36,30.22,30.18,30.14,10,10,10,13,5,,0.00,1,,222
2013-8-17,78,66,55,61,56,54,94,67,42,30.29,30.26,30.22,10,10,10,9,4,,0.00,0,,117
2013-8-18,75,68,62,64,59,55,94,74,50,30.27,30.21,30.15,10,10,10,10,3,,0.01,3,,43
2013-8-19,77,68,60,64,60,57,94,74,50,30.16,30.11,30.06,10,10,10,10,4,,0.00,0,,255
2013-8-20,84,73,62,70,66,63,100,77,48,30.15,30.12,30.08,10,9,2,10,5,,0.00,1,,233
2013-8-21,89,78,68,72,65,59,94,68,38,30.20,30.15,30.09,10,10,5,9,5,,0.00,0,,258
2013-8-22,82,76,71,72,69,66,94,85,70,30.10,30.00,29.90,10,9,2,12,6,16,0.52,2,Thunderstorm,235
2013-8-23,80,73,64,68,62,54,94,71,39,30.10,29.98,29.90,10,9,5,15,6,20,0.00,0,,327
2013-8-24,75,68,60,61,57,52,88,67,44,30.36,30.26,30.10,10,10,10,13,7,17,0.00,0,Thunderstorm,47
2013-8-25,82,70,57,61,54,50,94,63,35,30.42,30.35,30.28,10,10,7,10,3,,0.00,0,,262
2013-8-26,84,73,62,64,60,52,82,65,48,30.27,30.12,29.95,10,10,10,14,8,18,0.00,1,,243
2013-8-27,87,78,69,70,67,64,88,69,46,29.95,29.89,29.86,10,10,10,17,8,22,0.02,4,,295
2013-8-28,82,75,68,72,69,64,94,83,66,29.92,29.88,29.86,10,9,3,8,3,,0.00,2,,28
2013-8-29,75,72,69,70,67,64,94,82,69,30.05,29.98,29.89,10,8,0,14,7,18,0.00,6,,79
2013-8-30,84,76,69,70,67,63,88,75,58,30.04,29.98,29.90,10,9,1,12,5,16,0.00,5,,236
2013-8-31,89,79,69,73,70,68,94,75,55,29.92,29.87,29.82,10,10,8,14,8,18,0.00,4,,225